Time;durP1;ratioP1;P1;durP2;ratioP2;P2;SDS_P1;SDS_P2;PMS_P1;PMS_P2;Temp;Humidity;BMP_temperature;BMP_pressure;BME280_temperature;BME280_humidity;BME280_pressure;Samples;Min_cycle;Max_cycle;Signal;HPM_P1;HPM_P2
2022/11/02 00:02:12;;;;;;;5.90;3.58;;;;;;;10.40;nan;100199.50;4956855;28;20240;-76
2022/11/02 00:04:37;;;;;;;7.30;2.73;;;;;;;10.35;nan;100196.25;4959422;28;20184;-76
2022/11/02 00:07:02;;;;;;;3.47;2.40;;;;;;;10.28;nan;100186.16;4956113;28;20734;-76
2022/11/02 00:09:28;;;;;;;3.60;2.23;;;;;;;10.25;nan;100186.28;4954494;28;20637;-76
2022/11/02 00:11:53;;;;;;;4.27;2.60;;;;;;;10.26;nan;100188.84;4949225;28;20220;-76
2022/11/02 00:14:19;;;;;;;4.70;2.43;;;;;;;10.30;nan;100195.66;4957377;28;20359;-76
2022/11/02 00:16:44;;;;;;;4.37;3.40;;;;;;;10.31;nan;100196.50;4960071;28;20258;-76
2022/11/02 00:19:10;;;;;;;10.03;3.27;;;;;;;10.33;nan;100197.28;4955380;28;20308;-76
2022/11/02 00:21:36;;;;;;;2.40;2.20;;;;;;;10.34;nan;100199.81;4956089;28;20212;-76
2022/11/02 00:24:04;;;;;;;6.65;2.45;;;;;;;10.34;nan;100191.06;4959715;28;20431;-76
2022/11/02 00:26:32;;;;;;;2.38;2.17;;;;;;;10.37;nan;100194.41;4953907;28;20192;-77
2022/11/02 00:28:57;;;;;;;3.72;3.17;;;;;;;10.44;nan;100187.03;4959512;28;20212;-77
2022/11/02 00:31:23;;;;;;;2.83;2.53;;;;;;;10.49;nan;100195.53;4955179;28;20184;-75
2022/11/02 00:33:48;;;;;;;2.83;2.13;;;;;;;10.57;nan;100195.09;4958265;28;20200;-75
2022/11/02 00:36:14;;;;;;;5.90;2.30;;;;;;;10.62;nan;100185.19;4956680;28;20262;-76
2022/11/02 00:38:39;;;;;;;7.33;3.33;;;;;;;10.63;nan;100181.63;4954436;28;20581;-76
2022/11/02 00:41:05;;;;;;;4.33;2.70;;;;;;;10.60;nan;100189.69;4956261;28;20200;-77
2022/11/02 00:43:31;;;;;;;5.30;2.83;;;;;;;10.61;nan;100191.38;4944333;28;20187;-76
2022/11/02 00:45:56;;;;;;;4.03;2.77;;;;;;;10.63;nan;100186.88;4958260;28;20267;-76
2022/11/02 00:48:22;;;;;;;4.00;3.17;;;;;;;10.65;nan;100187.66;4954614;28;20236;-76
2022/11/02 00:50:48;;;;;;;3.90;2.90;;;;;;;10.64;nan;100170.22;4941835;28;20483;-76
2022/11/02 00:53:14;;;;;;;7.73;3.00;;;;;;;10.64;nan;100170.22;4954642;28;21120;-76
2022/11/02 00:55:47;;;;;;;2.90;2.70;;;;;;;10.63;nan;100177.22;4945498;28;20445;-76
2022/11/02 00:58:13;;;;;;;8.60;2.90;;;;;;;10.62;nan;100164.19;4942545;28;20204;-76
2022/11/02 01:00:38;;;;;;;4.80;2.07;;;;;;;10.59;nan;100161.72;4951750;28;20188;-76
2022/11/02 01:03:04;;;;;;;5.00;2.13;;;;;;;10.60;nan;100155.53;4958587;28;20439;-76
2022/11/02 01:05:30;;;;;;;4.60;1.90;;;;;;;10.65;nan;100174.53;4943975;28;20227;-76
2022/11/02 01:07:56;;;;;;;7.77;2.37;;;;;;;10.68;nan;100169.09;4954013;28;20503;-76
2022/11/02 01:10:21;;;;;;;3.83;2.50;;;;;;;10.69;nan;100160.28;4953284;28;20962;-76
2022/11/02 01:12:47;;;;;;;2.70;2.20;;;;;;;10.68;nan;100171.72;4945118;28;20270;-76
2022/11/02 01:15:12;;;;;;;3.20;2.13;;;;;;;10.64;nan;100167.59;4956684;28;20250;-76
2022/11/02 01:17:38;;;;;;;3.53;2.00;;;;;;;10.58;nan;100173.16;4954007;28;20689;-77
2022/11/02 01:20:05;;;;;;;2.33;1.60;;;;;;;10.52;nan;100170.88;4955591;28;20203;-78
2022/11/02 01:22:31;;;;;;;5.20;2.17;;;;;;;10.46;nan;100173.84;4952303;28;20258;-78
2022/11/02 01:24:57;;;;;;;4.90;3.03;;;;;;;10.41;nan;100168.81;4947683;28;20184;-77
2022/11/02 01:27:24;;;;;;;5.57;2.38;;;;;;;10.38;nan;100161.94;4955777;28;20191;-77
2022/11/02 01:29:49;;;;;;;4.93;2.50;;;;;;;10.38;nan;100167.22;4958502;28;20185;-78
2022/11/02 01:32:15;;;;;;;3.13;2.20;;;;;;;10.42;nan;100167.88;4955575;28;20527;-77
2022/11/02 01:34:40;;;;;;;5.90;2.50;;;;;;;10.47;nan;100170.25;4946653;28;20298;-78
2022/11/02 01:37:06;;;;;;;5.88;1.90;;;;;;;10.54;nan;100163.75;4958175;28;20200;-77
2022/11/02 01:39:32;;;;;;;5.47;2.17;;;;;;;10.56;nan;100161.91;4956682;28;20224;-77
2022/11/02 01:41:57;;;;;;;2.10;1.60;;;;;;;10.60;nan;100160.78;4940457;28;20755;-77
2022/11/02 01:44:28;;;;;;;4.07;2.47;;;;;;;10.63;nan;100171.13;4944233;28;20975;-78
2022/11/02 01:47:00;;;;;;;3.70;2.30;;;;;;;10.61;nan;100160.72;4950008;28;20211;-77
2022/11/02 01:49:26;;;;;;;3.05;1.95;;;;;;;10.63;nan;100165.88;4962184;28;20212;-77
2022/11/02 01:52:01;;;;;;;2.65;2.38;;;;;;;10.65;nan;100163.16;4962703;28;20189;-78
2022/11/02 01:54:31;;;;;;;3.10;2.58;;;;;;;10.66;nan;100167.47;4961238;28;20292;-77
2022/11/02 01:57:02;;;;;;;4.32;2.17;;;;;;;10.68;nan;100171.72;4960209;28;20367;-78
2022/11/02 01:59:33;;;;;;;4.22;2.13;;;;;;;10.67;nan;100164.78;4950696;28;20924;-77
2022/11/02 02:01:58;;;;;;;6.38;2.85;;;;;;;10.69;nan;100162.06;4962448;28;20267;-76
2022/11/02 02:04:25;;;;;;;3.90;1.90;;;;;;;10.70;nan;100164.63;4961201;28;20283;-75
2022/11/02 02:06:55;;;;;;;3.28;1.95;;;;;;;10.71;nan;100153.16;4963406;28;20181;-77
2022/11/02 02:09:22;;;;;;;2.95;1.92;;;;;;;10.72;nan;100154.88;4961837;28;20223;-77
2022/11/02 02:11:47;;;;;;;5.03;2.65;;;;;;;10.72;nan;100160.13;4959334;28;20279;-77
2022/11/02 02:14:16;;;;;;;2.90;2.27;;;;;;;10.71;nan;100153.16;4948287;28;20656;-78
2022/11/02 02:17:23;;;;;;;7.30;2.58;;;;;;;10.73;nan;100151.31;4961034;28;20268;-77
2022/11/02 02:20:02;;;;;;;4.70;2.38;;;;;;;10.71;nan;100162.81;4959454;28;20221;-78
2022/11/02 02:22:28;;;;;;;4.32;2.20;;;;;;;10.70;nan;100166.41;4960083;28;20268;-77
2022/11/02 02:25:06;;;;;;;3.97;2.17;;;;;;;10.70;nan;100161.13;4965392;28;20323;-77
2022/11/02 02:28:12;;;;;;;4.68;2.00;;;;;;;10.71;nan;100163.66;4958495;28;20196;-78
2022/11/02 02:30:56;;;;;;;4.85;3.78;;;;;;;10.72;nan;100156.63;4961602;28;20188;-78
2022/11/02 02:33:34;;;;;;;9.73;2.92;;;;;;;10.70;nan;100156.72;4944452;28;20192;-77
2022/11/02 02:36:13;;;;;;;4.78;2.40;;;;;;;10.69;nan;100152.38;4959854;28;20201;-77
2022/11/02 02:38:47;;;;;;;3.25;2.15;;;;;;;10.70;nan;100156.72;4958106;28;20235;-78
2022/11/02 02:41:34;;;;;;;4.78;2.65;;;;;;;10.71;nan;100150.53;4956754;28;20185;-77
2022/11/02 02:44:03;;;;;;;3.22;2.17;;;;;;;10.73;nan;100153.94;4953833;28;20219;-78
2022/11/02 02:46:44;;;;;;;7.93;2.90;;;;;;;10.75;nan;100148.59;4958754;28;20189;-78
2022/11/02 02:49:14;;;;;;;5.63;2.60;;;;;;;10.77;nan;100142.28;4962105;28;20295;-78
2022/11/02 02:51:42;;;;;;;4.95;2.30;;;;;;;10.77;nan;100149.34;4960772;28;20268;-77
2022/11/02 02:54:13;;;;;;;6.35;2.58;;;;;;;10.77;nan;100152.81;4962520;28;20239;-77
2022/11/02 02:56:46;;;;;;;5.03;2.15;;;;;;;10.74;nan;100155.59;4961523;28;20185;-78
2022/11/02 02:59:22;;;;;;;3.30;2.10;;;;;;;10.71;nan;100155.78;4957294;28;20212;-75
2022/11/02 03:01:48;;;;;;;7.72;2.65;;;;;;;10.69;nan;100162.06;4941926;28;20688;-75
2022/11/02 03:04:14;;;;;;;4.47;3.08;;;;;;;10.69;nan;100156.78;4956871;28;20997;-75
2022/11/02 03:06:48;;;;;;;5.15;3.05;;;;;;;10.65;nan;100156.13;4960128;28;20184;-77
2022/11/02 03:09:39;;;;;;;3.45;2.20;;;;;;;10.62;nan;100154.53;4958524;28;20218;-78
2022/11/02 03:12:25;;;;;;;6.40;2.15;;;;;;;10.59;nan;100159.09;4947472;28;20185;-77
2022/11/02 03:15:09;;;;;;;4.32;1.80;;;;;;;10.59;nan;100161.72;4957467;28;20231;-78
2022/11/02 03:17:58;;;;;;;2.30;1.73;;;;;;;10.57;nan;100160.97;4958906;28;20243;-77
2022/11/02 03:20:56;;;;;;;5.10;2.53;;;;;;;10.55;nan;100162.81;4952288;28;20230;-78
2022/11/02 03:23:29;;;;;;;4.70;1.67;;;;;;;10.53;nan;100160.28;4950348;28;20197;-78
2022/11/02 03:26:28;;;;;;;2.78;1.90;;;;;;;10.52;nan;100169.09;4963437;28;20181;-77
2022/11/02 03:29:09;;;;;;;2.55;1.63;;;;;;;10.50;nan;100165.69;4940555;28;21121;-77
2022/11/02 03:31:53;;;;;;;4.80;1.60;;;;;;;10.49;nan;100163.16;4950699;28;20501;-75
2022/11/02 03:34:39;;;;;;;2.55;2.03;;;;;;;10.47;nan;100172.88;4961679;28;20203;-75
2022/11/02 03:37:32;;;;;;;2.05;1.85;;;;;;;10.44;nan;100176.53;4957906;28;20188;-75
2022/11/02 03:40:10;;;;;;;2.20;2.00;;;;;;;10.40;nan;100175.00;4956097;28;20260;-75
2022/11/02 03:42:37;;;;;;;2.60;1.80;;;;;;;10.36;nan;100179.56;4956937;28;20185;-75
2022/11/02 03:45:10;;;;;;;3.00;1.80;;;;;;;10.34;nan;100184.06;4950961;28;20208;-75
2022/11/02 03:47:38;;;;;;;6.20;2.38;;;;;;;10.29;nan;100178.22;4955588;28;20212;-75
2022/11/02 03:50:11;;;;;;;3.03;1.73;;;;;;;10.27;nan;100187.94;4949360;28;20219;-75
2022/11/02 03:52:41;;;;;;;2.08;1.65;;;;;;;10.25;nan;100191.53;4954201;28;20188;-77
2022/11/02 03:55:16;;;;;;;2.85;2.05;;;;;;;10.23;nan;100202.13;4957714;28;20192;-75
2022/11/02 03:57:47;;;;;;;3.38;2.03;;;;;;;10.21;nan;100204.00;4954853;28;20189;-74
2022/11/02 04:00:22;;;;;;;2.05;1.85;;;;;;;10.18;nan;100202.38;4962812;28;20192;-78
2022/11/02 04:02:59;;;;;;;2.80;2.50;;;;;;;10.19;nan;100208.47;4946016;28;20186;-77
2022/11/02 04:05:31;;;;;;;3.28;2.13;;;;;;;10.17;nan;100202.44;4948686;28;20280;-77
2022/11/02 04:16:14;;;;;;;4.63;2.28;;;;;;;10.07;nan;100206.47;4955264;28;20649;-77
2022/11/02 04:21:25;;;;;;;6.80;1.80;;;;;;;10.07;nan;100220.47;4959401;28;20315;-77
2022/11/02 04:26:36;;;;;;;9.07;2.45;;;;;;;10.14;nan;100205.25;4962380;28;20743;-78
2022/11/02 04:29:01;;;;;;;4.90;1.80;;;;;;;10.18;nan;100212.03;4958364;28;20212;-77
2022/11/02 04:31:28;;;;;;;6.28;1.75;;;;;;;10.25;nan;100215.19;4959577;28;20184;-77
2022/11/02 04:33:54;;;;;;;2.93;1.77;;;;;;;10.29;nan;100212.34;4953271;28;20649;-78
2022/11/02 04:36:20;;;;;;;3.58;1.70;;;;;;;10.33;nan;100219.13;4954130;28;20181;-77
2022/11/02 04:38:51;;;;;;;5.30;2.00;;;;;;;10.37;nan;100225.91;4945862;28;20224;-78
2022/11/02 04:41:42;;;;;;;3.58;2.53;;;;;;;10.41;nan;100223.97;4952506;23;20776;-79
2022/11/02 04:44:21;;;;;;;4.00;1.70;;;;;;;10.45;nan;100225.53;4903912;29;20185;-77
2022/11/02 04:46:53;;;;;;;6.25;2.22;;;;;;;10.50;nan;100230.50;4929838;29;20213;-76
2022/11/02 04:49:22;;;;;;;2.60;1.67;;;;;;;10.54;nan;100234.69;4918580;29;20230;-75
2022/11/02 04:51:48;;;;;;;2.90;1.40;;;;;;;10.59;nan;100243.16;4948763;28;20332;-76
2022/11/02 04:54:13;;;;;;;3.80;1.40;;;;;;;10.63;nan;100250.78;4937284;28;20704;-77
2022/11/02 04:56:39;;;;;;;2.03;1.93;;;;;;;10.67;nan;100248.00;4931356;28;20227;-77
2022/11/02 04:59:05;;;;;;;4.33;1.73;;;;;;;10.69;nan;100254.84;4948553;28;20678;-77
2022/11/02 05:01:34;;;;;;;4.45;1.70;;;;;;;10.72;nan;100240.69;4931627;28;20193;-78
2022/11/02 05:04:01;;;;;;;4.53;1.95;;;;;;;10.74;nan;100244.09;4951636;28;20212;-76
2022/11/02 05:06:29;;;;;;;6.28;1.88;;;;;;;10.74;nan;100244.94;4952732;28;20195;-76
2022/11/02 05:08:55;;;;;;;1.93;1.40;;;;;;;10.75;nan;100245.81;4932666;28;20181;-78
2022/11/02 05:11:21;;;;;;;5.93;1.73;;;;;;;10.74;nan;100244.94;4929831;28;20215;-79
2022/11/02 05:13:48;;;;;;;3.92;1.63;;;;;;;10.78;nan;100249.13;4931336;28;20208;-76
2022/11/02 05:16:15;;;;;;;4.38;1.90;;;;;;;10.80;nan;100252.53;4936685;28;20197;-76
2022/11/02 05:18:42;;;;;;;6.18;1.90;;;;;;;10.82;nan;100255.03;4932002;28;20251;-77
2022/11/02 05:21:09;;;;;;;4.23;1.60;;;;;;;10.83;nan;100251.50;4931143;28;20208;-78
2022/11/02 05:23:35;;;;;;;2.65;1.50;;;;;;;10.85;nan;100245.25;4937115;28;20982;-75
2022/11/02 05:26:05;;;;;;;8.13;1.67;;;;;;;10.87;nan;100245.13;4951287;28;20217;-77
2022/11/02 05:28:33;;;;;;;5.90;1.38;;;;;;;10.89;nan;100247.69;4931810;28;21194;-77
2022/11/02 05:31:01;;;;;;;2.72;1.63;;;;;;;10.91;nan;100246.69;4946185;28;20197;-79
2022/11/02 05:33:30;;;;;;;9.13;2.00;;;;;;;10.94;nan;100248.28;4905903;28;20197;-80
2022/11/02 05:35:58;;;;;;;2.67;1.50;;;;;;;10.94;nan;100251.75;4947290;28;20223;-79
2022/11/02 05:38:24;;;;;;;2.47;1.80;;;;;;;10.95;nan;100255.25;4927471;28;20267;-77
2022/11/02 05:40:55;;;;;;;3.20;2.13;;;;;;;10.94;nan;100254.41;4930322;28;20225;-76
2022/11/02 05:43:22;;;;;;;4.10;1.55;;;;;;;10.96;nan;100255.13;4950790;28;20748;-77
2022/11/02 05:45:53;;;;;;;8.00;1.70;;;;;;;10.98;nan;100253.28;4932537;28;20180;-78
2022/11/02 05:48:18;;;;;;;6.10;2.05;;;;;;;11.02;nan;100248.72;4951435;28;20972;-77
2022/11/02 05:50:44;;;;;;;5.83;2.33;;;;;;;11.04;nan;100259.97;4953114;28;20212;-77
2022/11/02 05:53:09;;;;;;;7.70;2.33;;;;;;;11.07;nan;100259.81;4954049;28;20550;-77
2022/11/02 05:55:35;;;;;;;3.83;2.93;;;;;;;11.11;nan;100263.13;4951471;28;20622;-79
2022/11/02 05:58:00;;;;;;;2.43;1.70;;;;;;;11.14;nan;100261.16;4953806;28;20196;-77
2022/11/02 06:00:25;;;;;;;3.73;2.40;;;;;;;11.16;nan;100264.56;4948980;28;20201;-80
2022/11/02 06:02:56;;;;;;;4.67;1.67;;;;;;;11.19;nan;100266.19;4954423;28;20196;-79
2022/11/02 06:05:22;;;;;;;3.45;1.90;;;;;;;11.19;nan;100264.41;4953728;28;20199;-78
2022/11/02 06:07:47;;;;;;;2.10;1.70;;;;;;;11.22;nan;100271.25;4952301;28;20863;-77
2022/11/02 06:10:12;;;;;;;5.50;2.27;;;;;;;11.23;nan;100276.44;4951857;28;20177;-80
2022/11/02 06:12:38;;;;;;;4.77;2.50;;;;;;;11.24;nan;100278.13;4951893;28;20215;-77
2022/11/02 06:15:04;;;;;;;3.00;1.90;;;;;;;11.26;nan;100280.66;4952352;28;20193;-78
2022/11/02 06:17:36;;;;;;;6.50;2.17;;;;;;;11.30;nan;100284.84;4950866;28;20192;-79
2022/11/02 06:20:02;;;;;;;5.00;2.88;;;;;;;11.34;nan;100285.50;4953082;28;20182;-79
2022/11/02 06:22:27;;;;;;;7.50;2.77;;;;;;;11.38;nan;100289.66;4953369;28;20206;-77
2022/11/02 06:24:52;;;;;;;4.83;2.60;;;;;;;11.41;nan;100287.72;4951116;28;20169;-79
2022/11/02 06:27:19;;;;;;;4.27;2.70;;;;;;;11.44;nan;100289.31;4950962;28;20200;-78
2022/11/02 06:29:45;;;;;;;7.95;2.47;;;;;;;11.51;nan;100295.94;4942741;28;20271;-77
2022/11/02 06:32:10;;;;;;;4.03;1.63;;;;;;;11.55;nan;100300.06;4956461;28;20300;-78
2022/11/02 06:34:35;;;;;;;7.73;2.60;;;;;;;11.61;nan;100312.03;4952721;28;20475;-79
2022/11/02 06:37:01;;;;;;;3.63;1.90;;;;;;;11.64;nan;100312.72;4951966;28;20272;-77
2022/11/02 06:39:26;;;;;;;3.70;1.97;;;;;;;11.71;nan;100321.94;4945226;28;20187;-77
2022/11/02 06:41:52;;;;;;;3.33;1.53;;;;;;;11.77;nan;100327.81;4948373;28;20229;-79
2022/11/02 06:44:17;;;;;;;7.77;2.60;;;;;;;11.79;nan;100320.69;4947123;28;20187;-77
2022/11/02 06:46:42;;;;;;;2.67;2.03;;;;;;;11.84;nan;100327.38;4948199;28;20185;-79
2022/11/02 06:49:08;;;;;;;6.77;2.30;;;;;;;11.85;nan;100333.47;4946974;28;20560;-76
2022/11/02 06:51:33;;;;;;;4.23;2.10;;;;;;;11.87;nan;100339.53;4938273;28;20340;-77
2022/11/02 06:53:59;;;;;;;2.57;1.90;;;;;;;11.90;nan;100334.94;4939591;28;20245;-78
2022/11/02 06:56:24;;;;;;;2.40;1.73;;;;;;;11.96;nan;100339.00;4939008;28;20191;-77
2022/11/02 06:58:49;;;;;;;6.93;2.43;;;;;;;11.99;nan;100336.22;4940016;28;20581;-78
2022/11/02 07:01:15;;;;;;;5.33;2.03;;;;;;;12.07;nan;100341.88;4938618;28;20181;-77
2022/11/02 07:03:41;;;;;;;6.22;1.90;;;;;;;12.11;nan;100351.28;4941828;28;20188;-77
2022/11/02 07:06:06;;;;;;;3.90;2.30;;;;;;;12.18;nan;100359.69;4941723;28;20192;-78
2022/11/02 07:08:32;;;;;;;3.07;1.97;;;;;;;12.25;nan;100362.81;4943812;28;20256;-77
2022/11/02 07:10:57;;;;;;;2.63;1.50;;;;;;;12.30;nan;100360.75;4941158;28;20235;-79
2022/11/02 07:13:24;;;;;;;5.77;2.50;;;;;;;12.35;nan;100356.91;4938377;28;20909;-77
2022/11/02 07:15:53;;;;;;;3.42;2.10;;;;;;;12.42;nan;100357.38;4935322;28;20271;-77
2022/11/02 07:18:19;;;;;;;6.78;3.08;;;;;;;12.48;nan;100366.75;4932953;28;20181;-78
2022/11/02 07:20:45;;;;;;;12.52;3.53;;;;;;;12.59;nan;100372.22;4937154;28;20224;-77
2022/11/02 07:23:10;;;;;;;3.20;2.23;;;;;;;12.71;nan;100367.97;4939655;28;20199;-78
2022/11/02 07:25:36;;;;;;;9.43;2.60;;;;;;;12.83;nan;100372.53;4940365;28;20181;-79
2022/11/02 07:28:02;;;;;;;12.07;2.43;;;;;;;12.90;nan;100365.06;4938728;28;20211;-79
2022/11/02 07:30:29;;;;;;;3.17;1.90;;;;;;;12.98;nan;100368.09;4943237;28;20394;-79
2022/11/02 07:32:55;;;;;;;6.10;2.47;;;;;;;13.05;nan;100375.53;4946629;28;20196;-78
2022/11/02 07:35:21;;;;;;;3.43;1.83;;;;;;;13.14;nan;100366.19;4937956;28;20189;-78
2022/11/02 07:37:57;;;;;;;3.53;2.13;;;;;;;13.23;nan;100370.03;4941884;28;20446;-79
2022/11/02 07:40:22;;;;;;;4.97;1.80;;;;;;;13.30;nan;100371.41;4940521;28;20213;-78
2022/11/02 07:42:48;;;;;;;6.30;2.33;;;;;;;13.37;nan;100369.25;4939477;28;20177;-77
2022/11/02 07:45:16;;;;;;;7.90;2.33;;;;;;;13.48;nan;100380.81;4919552;28;20219;-78
2022/11/02 07:47:45;;;;;;;7.30;2.90;;;;;;;13.61;nan;100374.72;4941579;28;20335;-77
2022/11/02 07:50:13;;;;;;;3.40;2.30;;;;;;;13.75;nan;100380.00;4938291;28;20184;-77
2022/11/02 07:52:50;;;;;;;4.15;1.90;;;;;;;13.92;nan;100382.38;4934816;28;20227;-79
2022/11/02 07:55:18;;;;;;;4.60;1.80;;;;;;;14.09;nan;100386.53;4935316;28;20675;-79
2022/11/02 07:57:54;;;;;;;7.30;1.50;;;;;;;14.26;nan;100381.97;4940183;28;20747;-78
2022/11/02 08:00:20;;;;;;;7.07;2.55;;;;;;;14.37;nan;100380.28;4938957;28;20200;-77
2022/11/02 08:02:46;;;;;;;5.93;3.00;;;;;;;14.49;nan;100383.03;4940012;28;20705;-78
2022/11/02 08:05:11;;;;;;;8.00;2.13;;;;;;;14.58;nan;100393.03;4940269;28;20846;-79
2022/11/02 08:07:36;;;;;;;3.67;1.93;;;;;;;14.65;nan;100396.94;4937378;28;20350;-77
2022/11/02 08:10:02;;;;;;;1.93;1.57;;;;;;;14.69;nan;100392.28;4943629;28;20271;-77
2022/11/02 08:12:29;;;;;;;6.00;2.00;;;;;;;14.72;nan;100397.41;4940692;28;20220;-79
2022/11/02 08:14:55;;;;;;;3.53;1.65;;;;;;;14.77;nan;100396.13;4936280;28;20215;-78
2022/11/02 08:17:21;;;;;;;6.03;2.05;;;;;;;14.85;nan;100406.16;4935865;28;20181;-79
2022/11/02 08:19:47;;;;;;;5.70;2.20;;;;;;;14.95;nan;100401.09;4939555;28;20194;-79
2022/11/02 08:22:12;;;;;;;4.30;1.50;;;;;;;15.05;nan;100410.09;4936223;28;20459;-78
2022/11/02 08:24:37;;;;;;;9.40;2.17;;;;;;;15.20;nan;100406.38;4939837;28;20188;-77
2022/11/02 08:27:03;;;;;;;1.97;1.73;;;;;;;15.53;nan;100406.72;4937734;28;20188;-79
2022/11/02 08:29:28;;;;;;;1.53;1.30;;;;;;;15.97;nan;100411.50;4938709;28;20184;-79
2022/11/02 08:31:53;;;;;;;3.50;1.53;;;;;;;16.51;nan;100418.09;4942745;28;20192;-78
2022/11/02 08:34:19;;;;;;;9.10;2.13;;;;;;;16.99;nan;100410.88;4939368;28;20188;-80
2022/11/02 08:36:44;;;;;;;4.10;1.53;;;;;;;17.44;nan;100400.28;4946789;28;20204;-78
2022/11/02 08:39:10;;;;;;;3.93;1.60;;;;;;;17.57;nan;100399.28;4942599;28;20266;-79
2022/11/02 08:41:35;;;;;;;5.87;1.63;;;;;;;17.41;nan;100403.16;4940890;28;20287;-79
2022/11/02 08:44:00;;;;;;;7.97;1.77;;;;;;;17.29;nan;100409.44;4941680;28;20289;-79
2022/11/02 08:46:26;;;;;;;6.60;2.30;;;;;;;17.44;nan;100402.94;4944536;28;20196;-80
2022/11/02 08:48:51;;;;;;;5.50;1.90;;;;;;;17.67;nan;100402.88;4947297;28;20197;-79
2022/11/02 08:51:17;;;;;;;2.50;1.57;;;;;;;17.95;nan;100387.38;4944544;28;20264;-78
2022/11/02 08:53:42;;;;;;;1.60;1.30;;;;;;;18.23;nan;100391.28;4944223;28;20692;-79
2022/11/02 08:56:08;;;;;;;4.07;1.47;;;;;;;18.35;nan;100384.91;4944871;28;20241;-79
2022/11/02 08:58:33;;;;;;;9.53;2.43;;;;;;;18.45;nan;100390.31;4941653;28;20289;-79
2022/11/02 09:00:58;;;;;;;3.57;1.60;;;;;;;18.43;nan;100385.13;4943969;28;20239;-79
2022/11/02 09:03:24;;;;;;;2.40;1.50;;;;;;;18.50;nan;100378.31;4942781;28;20656;-78
2022/11/02 09:05:54;;;;;;;4.87;1.53;;;;;;;18.90;nan;100384.72;4941999;28;20245;-80
2022/11/02 09:08:20;;;;;;;7.55;1.80;;;;;;;19.03;nan;100388.00;4945457;28;20700;-78
2022/11/02 09:10:49;;;;;;;3.03;1.50;;;;;;;18.84;nan;100380.78;4948391;28;20314;-80
2022/11/02 09:13:17;;;;;;;9.82;1.77;;;;;;;18.41;nan;100379.06;4947486;28;20697;-77
2022/11/02 09:15:42;;;;;;;3.75;1.60;;;;;;;18.04;nan;100376.84;4947448;28;20795;-74
2022/11/02 09:18:09;;;;;;;2.03;1.48;;;;;;;17.82;nan;100383.09;4925390;28;20196;-77
2022/11/02 09:20:35;;;;;;;2.47;1.00;;;;;;;17.70;nan;100379.56;4950241;28;20219;-78
2022/11/02 09:23:00;;;;;;;2.42;1.40;;;;;;;17.71;nan;100380.41;4949391;28;21029;-77
2022/11/02 09:25:26;;;;;;;4.50;1.20;;;;;;;17.99;nan;100364.91;4947129;28;20206;-77
2022/11/02 09:27:53;;;;;;;1.30;1.17;;;;;;;18.32;nan;100367.41;4946911;28;20411;-78
2022/11/02 09:30:19;;;;;;;2.25;1.40;;;;;;;18.51;nan;100364.03;4945931;28;20197;-77
2022/11/02 09:32:55;;;;;;;6.90;1.58;;;;;;;18.48;nan;100366.94;4950275;28;20180;-78
2022/11/02 09:35:22;;;;;;;4.80;1.92;;;;;;;18.30;nan;100365.84;4947749;28;20199;-79
2022/11/02 09:37:47;;;;;;;6.03;1.55;;;;;;;18.13;nan;100373.41;4945329;28;20552;-79
2022/11/02 09:40:18;;;;;;;2.60;1.13;;;;;;;18.06;nan;100374.03;4946866;28;20684;-77
2022/11/02 09:43:02;;;;;;;1.20;1.10;;;;;;;17.94;nan;100369.75;4949581;28;20267;-79
2022/11/02 09:45:50;;;;;;;3.08;1.38;;;;;;;17.78;nan;100370.13;4947117;28;20952;-79
2022/11/02 09:48:20;;;;;;;4.70;1.70;;;;;;;17.65;nan;100378.25;4942583;28;20241;-77
2022/11/02 09:51:01;;;;;;;3.28;1.40;;;;;;;17.48;nan;100374.31;4946177;28;20222;-78
2022/11/02 09:53:46;;;;;;;4.07;1.55;;;;;;;17.40;nan;100382.03;4946991;28;20223;-77
2022/11/02 09:56:16;;;;;;;4.47;1.50;;;;;;;17.34;nan;100379.88;4944232;28;21095;-78
2022/11/02 09:58:44;;;;;;;3.92;1.58;;;;;;;17.30;nan;100384.56;4944328;28;20190;-78
2022/11/02 10:01:26;;;;;;;2.50;1.77;;;;;;;17.25;nan;100378.78;4949511;28;20245;-79
2022/11/02 10:04:12;;;;;;;2.92;1.60;;;;;;;17.22;nan;100373.72;4948776;28;20269;-79
2022/11/02 10:06:44;;;;;;;2.92;1.95;;;;;;;17.15;nan;100378.69;4946831;28;20201;-77
2022/11/02 10:09:17;;;;;;;2.65;1.25;;;;;;;17.15;nan;100383.16;4945717;28;20200;-78
2022/11/02 10:11:55;;;;;;;7.30;1.77;;;;;;;17.13;nan;100385.91;4947107;28;20644;-79
2022/11/02 10:14:27;;;;;;;3.85;1.90;;;;;;;17.14;nan;100382.28;4945248;28;20284;-77
2022/11/02 10:17:00;;;;;;;5.32;1.63;;;;;;;17.18;nan;100367.81;4950398;28;20186;-78
2022/11/02 10:19:26;;;;;;;2.83;1.70;;;;;;;17.24;nan;100377.94;4942507;28;20194;-79
2022/11/02 10:21:56;;;;;;;4.20;1.40;;;;;;;17.26;nan;100367.22;4946131;28;20237;-77
2022/11/02 10:24:24;;;;;;;4.00;2.55;;;;;;;17.27;nan;100363.56;4948816;28;20188;-77
2022/11/02 10:26:55;;;;;;;5.15;2.00;;;;;;;17.30;nan;100368.63;4944219;28;20191;-77
2022/11/02 10:29:32;;;;;;;3.22;1.38;;;;;;;17.36;nan;100362.00;4944215;28;20196;-77
2022/11/02 10:31:58;;;;;;;1.40;1.27;;;;;;;17.31;nan;100353.53;4946484;28;20567;-77
2022/11/02 10:34:26;;;;;;;9.37;2.83;;;;;;;17.27;nan;100357.44;4945283;28;20718;-78
2022/11/02 10:37:02;;;;;;;6.32;1.60;;;;;;;17.21;nan;100356.94;4948599;28;20865;-78
2022/11/02 10:39:39;;;;;;;5.25;1.83;;;;;;;17.18;nan;100351.88;4943939;28;21014;-78
2022/11/02 10:42:13;;;;;;;4.95;1.85;;;;;;;17.19;nan;100355.38;4948611;28;20274;-78
2022/11/02 10:44:57;;;;;;;6.07;2.05;;;;;;;17.20;nan;100347.31;4943512;28;20287;-77
2022/11/02 10:47:28;;;;;;;3.50;1.83;;;;;;;17.24;nan;100351.38;4945750;28;20342;-78
2022/11/02 10:50:12;;;;;;;5.05;2.03;;;;;;;17.24;nan;100353.19;4947631;28;20198;-78
2022/11/02 10:52:42;;;;;;;2.13;1.50;;;;;;;17.24;nan;100347.91;4947668;28;20217;-78
2022/11/02 10:55:33;;;;;;;3.95;1.75;;;;;;;17.15;nan;100354.78;4946927;28;20809;-78
2022/11/02 10:58:02;;;;;;;3.92;1.85;;;;;;;17.08;nan;100360.69;4944085;28;20174;-78
2022/11/02 11:00:33;;;;;;;5.18;1.80;;;;;;;17.10;nan;100372.03;4945555;28;20213;-78
2022/11/02 11:03:10;;;;;;;6.72;2.20;;;;;;;17.14;nan;100353.06;4949967;28;20182;-78
2022/11/02 11:05:58;;;;;;;4.40;2.03;;;;;;;17.29;nan;100360.81;4949010;28;20313;-78
2022/11/02 11:08:40;;;;;;;3.47;1.77;;;;;;;17.34;nan;100351.50;4947050;28;21139;-78
2022/11/02 11:11:13;;;;;;;3.90;2.33;;;;;;;17.34;nan;100351.50;4946213;28;20216;-78
2022/11/02 11:13:41;;;;;;;2.80;1.50;;;;;;;17.33;nan;100348.97;4944201;28;20222;-78
2022/11/02 11:16:07;;;;;;;4.25;1.70;;;;;;;17.33;nan;100347.16;4947744;28;20201;-78
2022/11/02 11:18:33;;;;;;;6.20;1.70;;;;;;;17.38;nan;100346.78;4947473;28;20185;-78
2022/11/02 11:21:00;;;;;;;3.93;2.27;;;;;;;17.46;nan;100344.34;4932187;28;20333;-78
2022/11/02 11:23:26;;;;;;;5.75;1.85;;;;;;;17.46;nan;100339.88;4942606;28;20194;-78
2022/11/02 11:25:54;;;;;;;4.72;1.70;;;;;;;17.47;nan;100338.94;4941682;28;20324;-79
2022/11/02 11:28:36;;;;;;;4.95;2.00;;;;;;;17.49;nan;100338.78;4947755;28;20277;-78
2022/11/02 11:31:02;;;;;;;3.90;2.30;;;;;;;17.45;nan;100322.28;4942732;28;20215;-78
2022/11/02 11:33:29;;;;;;;6.40;2.50;;;;;;;17.47;nan;100319.47;4943790;28;20219;-78
2022/11/02 11:35:54;;;;;;;3.55;1.80;;;;;;;17.53;nan;100323.47;4949897;28;20217;-78
2022/11/02 11:38:22;;;;;;;6.03;1.80;;;;;;;17.62;nan;100312.91;4945565;28;20212;-76
2022/11/02 11:40:52;;;;;;;5.97;2.20;;;;;;;17.69;nan;100315.94;4941069;28;20321;-76
2022/11/02 11:43:20;;;;;;;6.38;1.63;;;;;;;17.73;nan;100319.16;4949532;28;20182;-75
2022/11/02 11:45:53;;;;;;;3.22;1.30;;;;;;;17.75;nan;100319.91;4947706;28;20199;-75
2022/11/02 11:48:33;;;;;;;2.92;1.80;;;;;;;17.77;nan;100320.59;4945710;28;20652;-76
2022/11/02 11:51:02;;;;;;;4.07;1.80;;;;;;;17.78;nan;100312.50;4941340;28;20215;-76
2022/11/02 11:53:28;;;;;;;4.63;2.87;;;;;;;17.81;nan;100306.97;4948568;28;20485;-76
2022/11/02 11:55:59;;;;;;;2.85;1.30;;;;;;;17.80;nan;100299.97;4944688;28;20944;-78
2022/11/02 11:58:32;;;;;;;3.20;1.90;;;;;;;17.78;nan;100304.53;4939684;28;20201;-77
2022/11/02 12:01:05;;;;;;;2.80;1.63;;;;;;;17.83;nan;100294.41;4940767;28;20217;-76
2022/11/02 12:03:31;;;;;;;6.13;2.70;;;;;;;17.92;nan;100292.78;4947087;28;20457;-76
2022/11/02 12:06:21;;;;;;;4.70;1.70;;;;;;;17.97;nan;100289.75;4946353;28;20455;-76
2022/11/02 12:08:53;;;;;;;5.00;2.10;;;;;;;17.99;nan;100287.81;4947783;28;20182;-76